createdAt,value
2023-06-10T03:30:20.597Z,2.1
2023-06-10T03:45:19.923Z,0.8
2023-06-10T04:03:19.656Z,1.7
2023-06-10T04:15:20.408Z,2.9
2023-06-10T04:30:19.796Z,2.2
2023-06-10T04:45:21.419Z,2.5
2023-06-10T05:00:20.020Z,2.6
2023-06-10T05:15:25.724Z,5.3
2023-06-10T05:30:19.906Z,5.5
2023-06-10T05:45:19.915Z,4.6
2023-06-10T06:00:20.390Z,5
2023-06-10T06:15:20.120Z,5.6
2023-06-10T06:30:20.425Z,6.9
2023-06-10T06:45:20.032Z,6.4
2023-06-10T07:00:20.905Z,6.8
2023-06-10T07:15:20.260Z,9.6
2023-06-10T07:30:20.715Z,7.8
2023-06-10T07:45:19.514Z,8.7
2023-06-10T08:00:20.640Z,9.1
2023-06-10T08:15:20.467Z,9.3
2023-06-10T08:30:21.202Z,9.8
2023-06-10T08:45:20.142Z,9
2023-06-10T09:00:19.954Z,10.5
2023-06-10T09:15:20.364Z,10
2023-06-10T09:30:20.823Z,10.3
2023-06-10T09:45:29.482Z,10.8
2023-06-10T10:00:41.778Z,10.8
2023-06-10T10:15:20.799Z,10.2
2023-06-10T10:30:20.447Z,10
2023-06-10T10:45:19.698Z,9.2
2023-06-10T11:00:21.012Z,9.2
2023-06-10T11:15:20.177Z,9.2
2023-06-10T11:30:20.278Z,9.2
2023-06-10T11:45:21.029Z,9.2
2023-06-10T12:00:20.924Z,11.4
2023-06-10T12:15:19.801Z,18.1
2023-06-10T12:30:20.916Z,21
2023-06-10T12:45:20.470Z,23.4
2023-06-10T13:00:20.861Z,23.3
2023-06-10T13:15:20.376Z,24.6
2023-06-10T13:30:21.566Z,27.6
2023-06-10T13:45:19.955Z,31
2023-06-10T14:00:20.396Z,33.2
2023-06-10T14:15:20.218Z,34.4
2023-06-10T14:30:20.212Z,35.1
2023-06-10T14:45:20.802Z,41.5
2023-06-10T15:00:20.611Z,47.2
2023-06-10T15:15:20.577Z,49.9
2023-06-10T15:30:20.693Z,52.8
2023-06-10T15:45:20.652Z,52.4
2023-06-10T16:00:20.605Z,48.9
2023-06-10T16:15:20.653Z,45.6
2023-06-10T16:30:20.573Z,43.3
2023-06-10T16:45:20.342Z,41.1
2023-06-10T17:00:20.183Z,39.8
2023-06-10T17:15:20.511Z,36.8
2023-06-10T17:30:19.831Z,32.2
2023-06-10T17:45:19.676Z,26.4
2023-06-10T18:00:19.766Z,20.2
2023-06-10T18:15:20.509Z,9.8
2023-06-10T18:30:20.963Z,4.2
2023-06-10T18:45:20.376Z,3.2
2023-06-10T19:00:19.959Z,2.1
2023-06-10T19:15:20.594Z,1
2023-06-10T19:30:21.073Z,0.8
2023-06-10T19:45:20.211Z,0.8
2023-06-10T20:00:22.392Z,0.8
2023-06-10T20:15:20.324Z,0.8
